sensor_id;sensor_type;location;lat;lon;timestamp;pressure;altitude;pressure_sealevel;temperature
74485;BMP280;62942;52.462;10.846;2022-10-31T00:00:14;101160;;;
74485;BMP280;62942;52.462;10.846;2022-10-31T00:01:14;101160;;;
74485;BMP280;62942;52.462;10.846;2022-10-31T00:02:23;101150;;;
74485;BMP280;62942;52.462;10.846;2022-10-31T00:03:24;101160;;;
74485;BMP280;62942;52.462;10.846;2022-10-31T00:04:33;101170;;;
74485;BMP280;62942;52.462;10.846;2022-10-31T00:05:33;101160;;;
74485;BMP280;62942;52.462;10.846;2022-10-31T00:06:43;101170;;;
74485;BMP280;62942;52.462;10.846;2022-10-31T00:07:53;101170;;;
74485;BMP280;62942;52.462;10.846;2022-10-31T00:08:54;101170;;;
74485;BMP280;62942;52.462;10.846;2022-10-31T00:10:04;101170;;;
74485;BMP280;62942;52.462;10.846;2022-10-31T00:11:07;101170;;;
74485;BMP280;62942;52.462;10.846;2022-10-31T00:12:04;101170;;;
74485;BMP280;62942;52.462;10.846;2022-10-31T00:13:04;101150;;;
74485;BMP280;62942;52.462;10.846;2022-10-31T00:14:13;101160;;;
74485;BMP280;62942;52.462;10.846;2022-10-31T00:15:23;101150;;;
74485;BMP280;62942;52.462;10.846;2022-10-31T00:16:33;101170;;;
74485;BMP280;62942;52.462;10.846;2022-10-31T00:17:34;101170;;;
74485;BMP280;62942;52.462;10.846;2022-10-31T00:18:44;101180;;;
74485;BMP280;62942;52.462;10.846;2022-10-31T00:19:44;101170;;;
74485;BMP280;62942;52.462;10.846;2022-10-31T00:20:58;101170;;;
74485;BMP280;62942;52.462;10.846;2022-10-31T00:21:54;101170;;;
74485;BMP280;62942;52.462;10.846;2022-10-31T00:23:04;101170;;;
74485;BMP280;62942;52.462;10.846;2022-10-31T00:24:04;101170;;;
74485;BMP280;62942;52.462;10.846;2022-10-31T00:25:13;101160;;;
74485;BMP280;62942;52.462;10.846;2022-10-31T00:26:24;101170;;;
74485;BMP280;62942;52.462;10.846;2022-10-31T00:27:33;101170;;;
74485;BMP280;62942;52.462;10.846;2022-10-31T00:28:43;101170;;;
74485;BMP280;62942;52.462;10.846;2022-10-31T00:29:53;101170;;;
74485;BMP280;62942;52.462;10.846;2022-10-31T00:31:04;101170;;;
74485;BMP280;62942;52.462;10.846;2022-10-31T00:32:13;101170;;;
74485;BMP280;62942;52.462;10.846;2022-10-31T00:33:23;101170;;;
74485;BMP280;62942;52.462;10.846;2022-10-31T00:34:33;101170;;;
74485;BMP280;62942;52.462;10.846;2022-10-31T00:35:48;101170;;;
74485;BMP280;62942;52.462;10.846;2022-10-31T00:36:53;101170;;;
74485;BMP280;62942;52.462;10.846;2022-10-31T00:38:03;101180;;;
74485;BMP280;62942;52.462;10.846;2022-10-31T00:39:13;101180;;;
74485;BMP280;62942;52.462;10.846;2022-10-31T00:40:23;101180;;;
74485;BMP280;62942;52.462;10.846;2022-10-31T00:41:33;101180;;;
74485;BMP280;62942;52.462;10.846;2022-10-31T00:42:43;101180;;;
74485;BMP280;62942;52.462;10.846;2022-10-31T00:43:53;101180;;;
74485;BMP280;62942;52.462;10.846;2022-10-31T00:45:04;101190;;;
74485;BMP280;62942;52.462;10.846;2022-10-31T00:46:13;101180;;;
74485;BMP280;62942;52.462;10.846;2022-10-31T00:47:13;101170;;;
74485;BMP280;62942;52.462;10.846;2022-10-31T00:48:23;101170;;;
74485;BMP280;62942;52.462;10.846;2022-10-31T00:49:23;101180;;;
74485;BMP280;62942;52.462;10.846;2022-10-31T00:50:33;101180;;;
74485;BMP280;62942;52.462;10.846;2022-10-31T00:51:33;101180;;;
74485;BMP280;62942;52.462;10.846;2022-10-31T00:52:43;101180;;;
74485;BMP280;62942;52.462;10.846;2022-10-31T00:53:43;101190;;;
74485;BMP280;62942;52.462;10.846;2022-10-31T00:54:53;101180;;;
74485;BMP280;62942;52.462;10.846;2022-10-31T00:56:04;101190;;;
74485;BMP280;62942;52.462;10.846;2022-10-31T00:57:13;101190;;;
74485;BMP280;62942;52.462;10.846;2022-10-31T00:58:23;101170;;;
74485;BMP280;62942;52.462;10.846;2022-10-31T00:59:33;101180;;;
74485;BMP280;62942;52.462;10.846;2022-10-31T01:00:43;101170;;;
74485;BMP280;62942;52.462;10.846;2022-10-31T01:01:53;101170;;;
74485;BMP280;62942;52.462;10.846;2022-10-31T01:03:03;101170;;;
74485;BMP280;62942;52.462;10.846;2022-10-31T01:04:03;101170;;;
74485;BMP280;62942;52.462;10.846;2022-10-31T01:05:14;101190;;;
74485;BMP280;62942;52.462;10.846;2022-10-31T01:06:23;101180;;;
74485;BMP280;62942;52.462;10.846;2022-10-31T01:07:35;101190;;;
74485;BMP280;62942;52.462;10.846;2022-10-31T01:08:34;101190;;;
74485;BMP280;62942;52.462;10.846;2022-10-31T01:09:43;101190;;;
74485;BMP280;62942;52.462;10.846;2022-10-31T01:11:02;101190;;;
74485;BMP280;62942;52.462;10.846;2022-10-31T01:12:03;101180;;;
74485;BMP280;62942;52.462;10.846;2022-10-31T01:13:03;101190;;;
74485;BMP280;62942;52.462;10.846;2022-10-31T01:14:13;101200;;;
74485;BMP280;62942;52.462;10.846;2022-10-31T01:15:23;101200;;;
74485;BMP280;62942;52.462;10.846;2022-10-31T01:16:33;101200;;;
74485;BMP280;62942;52.462;10.846;2022-10-31T01:17:33;101190;;;
74485;BMP280;62942;52.462;10.846;2022-10-31T01:18:44;101190;;;
74485;BMP280;62942;52.462;10.846;2022-10-31T01:19:53;101190;;;
74485;BMP280;62942;52.462;10.846;2022-10-31T01:21:05;101190;;;
74485;BMP280;62942;52.462;10.846;2022-10-31T01:22:03;101190;;;
74485;BMP280;62942;52.462;10.846;2022-10-31T01:23:13;101200;;;
74485;BMP280;62942;52.462;10.846;2022-10-31T01:24:23;101200;;;
74485;BMP280;62942;52.462;10.846;2022-10-31T01:25:33;101200;;;
74485;BMP280;62942;52.462;10.846;2022-10-31T01:26:33;101190;;;
74485;BMP280;62942;52.462;10.846;2022-10-31T01:27:43;101190;;;
74485;BMP280;62942;52.462;10.846;2022-10-31T01:28:54;101200;;;
74485;BMP280;62942;52.462;10.846;2022-10-31T01:30:04;101200;;;
74485;BMP280;62942;52.462;10.846;2022-10-31T01:31:04;101190;;;
74485;BMP280;62942;52.462;10.846;2022-10-31T01:32:13;101200;;;
74485;BMP280;62942;52.462;10.846;2022-10-31T01:33:23;101200;;;
74485;BMP280;62942;52.462;10.846;2022-10-31T01:34:33;101200;;;
74485;BMP280;62942;52.462;10.846;2022-10-31T01:35:43;101200;;;
74485;BMP280;62942;52.462;10.846;2022-10-31T01:36:53;101200;;;
74485;BMP280;62942;52.462;10.846;2022-10-31T01:37:53;101200;;;
74485;BMP280;62942;52.462;10.846;2022-10-31T01:38:55;101200;;;
74485;BMP280;62942;52.462;10.846;2022-10-31T01:40:04;101180;;;
74485;BMP280;62942;52.462;10.846;2022-10-31T01:41:14;101190;;;
74485;BMP280;62942;52.462;10.846;2022-10-31T01:42:15;101210;;;
74485;BMP280;62942;52.462;10.846;2022-10-31T01:43:23;101200;;;
74485;BMP280;62942;52.462;10.846;2022-10-31T01:44:57;101210;;;
74485;BMP280;62942;52.462;10.846;2022-10-31T01:45:33;101210;;;
74485;BMP280;62942;52.462;10.846;2022-10-31T01:46:44;101200;;;
74485;BMP280;62942;52.462;10.846;2022-10-31T01:47:53;101200;;;
74485;BMP280;62942;52.462;10.846;2022-10-31T01:48:53;101200;;;
74485;BMP280;62942;52.462;10.846;2022-10-31T01:50:04;101210;;;
74485;BMP280;62942;52.462;10.846;2022-10-31T01:51:13;101210;;;
74485;BMP280;62942;52.462;10.846;2022-10-31T01:52:24;101210;;;
74485;BMP280;62942;52.462;10.846;2022-10-31T01:53:37;101210;;;
74485;BMP280;62942;52.462;10.846;2022-10-31T01:54:38;101210;;;
74485;BMP280;62942;52.462;10.846;2022-10-31T01:55:47;101210;;;
74485;BMP280;62942;52.462;10.846;2022-10-31T01:56:57;101220;;;
74485;BMP280;62942;52.462;10.846;2022-10-31T01:58:08;101220;;;
74485;BMP280;62942;52.462;10.846;2022-10-31T01:59:18;101220;;;
74485;BMP280;62942;52.462;10.846;2022-10-31T02:00:18;101220;;;
74485;BMP280;62942;52.462;10.846;2022-10-31T02:01:27;101210;;;
74485;BMP280;62942;52.462;10.846;2022-10-31T02:02:27;101210;;;
74485;BMP280;62942;52.462;10.846;2022-10-31T02:03:37;101210;;;
74485;BMP280;62942;52.462;10.846;2022-10-31T02:04:37;101200;;;
74485;BMP280;62942;52.462;10.846;2022-10-31T02:05:47;101210;;;
74485;BMP280;62942;52.462;10.846;2022-10-31T02:06:58;101210;;;
74485;BMP280;62942;52.462;10.846;2022-10-31T02:08:08;101200;;;
74485;BMP280;62942;52.462;10.846;2022-10-31T02:09:17;101220;;;
74485;BMP280;62942;52.462;10.846;2022-10-31T02:10:27;101210;;;
74485;BMP280;62942;52.462;10.846;2022-10-31T02:11:38;101210;;;
74485;BMP280;62942;52.462;10.846;2022-10-31T02:12:48;101220;;;
74485;BMP280;62942;52.462;10.846;2022-10-31T02:13:58;101220;;;
74485;BMP280;62942;52.462;10.846;2022-10-31T02:14:57;101220;;;
74485;BMP280;62942;52.462;10.846;2022-10-31T02:15:58;101220;;;
74485;BMP280;62942;52.462;10.846;2022-10-31T02:17:07;101220;;;
74485;BMP280;62942;52.462;10.846;2022-10-31T02:18:07;101220;;;
74485;BMP280;62942;52.462;10.846;2022-10-31T02:19:18;101220;;;
74485;BMP280;62942;52.462;10.846;2022-10-31T02:20:29;101220;;;
74485;BMP280;62942;52.462;10.846;2022-10-31T02:21:39;101220;;;
74485;BMP280;62942;52.462;10.846;2022-10-31T02:22:40;101220;;;
74485;BMP280;62942;52.462;10.846;2022-10-31T02:23:53;101230;;;
74485;BMP280;62942;52.462;10.846;2022-10-31T02:25:01;101230;;;
74485;BMP280;62942;52.462;10.846;2022-10-31T02:26:07;101230;;;
74485;BMP280;62942;52.462;10.846;2022-10-31T02:27:11;101220;;;
74485;BMP280;62942;52.462;10.846;2022-10-31T02:28:23;101230;;;
74485;BMP280;62942;52.462;10.846;2022-10-31T02:30:34;101230;;;
74485;BMP280;62942;52.462;10.846;2022-10-31T02:30:39;101240;;;
74485;BMP280;62942;52.462;10.846;2022-10-31T02:31:49;101240;;;
74485;BMP280;62942;52.462;10.846;2022-10-31T02:33:00;101240;;;
74485;BMP280;62942;52.462;10.846;2022-10-31T02:34:10;101240;;;
74485;BMP280;62942;52.462;10.846;2022-10-31T02:35:22;101240;;;
74485;BMP280;62942;52.462;10.846;2022-10-31T02:36:19;101240;;;
74485;BMP280;62942;52.462;10.846;2022-10-31T02:37:29;101240;;;
74485;BMP280;62942;52.462;10.846;2022-10-31T02:38:29;101240;;;
74485;BMP280;62942;52.462;10.846;2022-10-31T02:39:38;101250;;;
74485;BMP280;62942;52.462;10.846;2022-10-31T02:40:49;101250;;;
74485;BMP280;62942;52.462;10.846;2022-10-31T02:41:48;101250;;;
74485;BMP280;62942;52.462;10.846;2022-10-31T02:42:59;101250;;;
74485;BMP280;62942;52.462;10.846;2022-10-31T02:44:08;101250;;;
74485;BMP280;62942;52.462;10.846;2022-10-31T02:45:19;101260;;;
74485;BMP280;62942;52.462;10.846;2022-10-31T02:46:19;101250;;;
74485;BMP280;62942;52.462;10.846;2022-10-31T02:47:28;101250;;;
74485;BMP280;62942;52.462;10.846;2022-10-31T02:48:28;101250;;;
74485;BMP280;62942;52.462;10.846;2022-10-31T02:49:29;101260;;;
74485;BMP280;62942;52.462;10.846;2022-10-31T02:50:39;101250;;;
74485;BMP280;62942;52.462;10.846;2022-10-31T02:51:38;101250;;;
74485;BMP280;62942;52.462;10.846;2022-10-31T02:52:49;101260;;;
74485;BMP280;62942;52.462;10.846;2022-10-31T02:53:47;101250;;;
74485;BMP280;62942;52.462;10.846;2022-10-31T02:54:57;101260;;;
74485;BMP280;62942;52.462;10.846;2022-10-31T02:55:58;101250;;;
74485;BMP280;62942;52.462;10.846;2022-10-31T02:56:58;101260;;;
74485;BMP280;62942;52.462;10.846;2022-10-31T02:58:08;101260;;;
74485;BMP280;62942;52.462;10.846;2022-10-31T02:59:17;101260;;;
74485;BMP280;62942;52.462;10.846;2022-10-31T03:00:27;101270;;;
74485;BMP280;62942;52.462;10.846;2022-10-31T03:01:42;101260;;;
74485;BMP280;62942;52.462;10.846;2022-10-31T03:02:52;101260;;;
74485;BMP280;62942;52.462;10.846;2022-10-31T03:04:01;101270;;;
74485;BMP280;62942;52.462;10.846;2022-10-31T03:05:11;101270;;;
74485;BMP280;62942;52.462;10.846;2022-10-31T03:06:19;101270;;;
74485;BMP280;62942;52.462;10.846;2022-10-31T03:07:28;101270;;;
74485;BMP280;62942;52.462;10.846;2022-10-31T03:08:29;101270;;;
74485;BMP280;62942;52.462;10.846;2022-10-31T03:09:28;101270;;;
74485;BMP280;62942;52.462;10.846;2022-10-31T03:10:39;101270;;;
74485;BMP280;62942;52.462;10.846;2022-10-31T03:11:49;101270;;;
74485;BMP280;62942;52.462;10.846;2022-10-31T03:12:48;101280;;;
74485;BMP280;62942;52.462;10.846;2022-10-31T03:13:58;101270;;;
74485;BMP280;62942;52.462;10.846;2022-10-31T03:15:10;101280;;;
74485;BMP280;62942;52.462;10.846;2022-10-31T03:16:18;101280;;;
74485;BMP280;62942;52.462;10.846;2022-10-31T03:17:20;101280;;;
74485;BMP280;62942;52.462;10.846;2022-10-31T03:18:28;101270;;;
74485;BMP280;62942;52.462;10.846;2022-10-31T03:19:38;101280;;;
74485;BMP280;62942;52.462;10.846;2022-10-31T03:20:47;101270;;;
74485;BMP280;62942;52.462;10.846;2022-10-31T03:21:57;101280;;;
74485;BMP280;62942;52.462;10.846;2022-10-31T03:22:57;101280;;;
74485;BMP280;62942;52.462;10.846;2022-10-31T03:24:07;101280;;;
74485;BMP280;62942;52.462;10.846;2022-10-31T03:25:17;101280;;;
74485;BMP280;62942;52.462;10.846;2022-10-31T03:26:17;101280;;;
74485;BMP280;62942;52.462;10.846;2022-10-31T03:27:28;101280;;;
74485;BMP280;62942;52.462;10.846;2022-10-31T03:28:28;101290;;;
74485;BMP280;62942;52.462;10.846;2022-10-31T03:29:37;101280;;;
74485;BMP280;62942;52.462;10.846;2022-10-31T03:30:47;101290;;;
74485;BMP280;62942;52.462;10.846;2022-10-31T03:31:58;101280;;;
74485;BMP280;62942;52.462;10.846;2022-10-31T03:32:57;101280;;;
74485;BMP280;62942;52.462;10.846;2022-10-31T03:34:07;101280;;;
74485;BMP280;62942;52.462;10.846;2022-10-31T03:35:18;101280;;;
74485;BMP280;62942;52.462;10.846;2022-10-31T03:36:28;101280;;;
74485;BMP280;62942;52.462;10.846;2022-10-31T03:37:37;101280;;;
74485;BMP280;62942;52.462;10.846;2022-10-31T03:38:49;101280;;;
74485;BMP280;62942;52.462;10.846;2022-10-31T03:39:47;101280;;;
74485;BMP280;62942;52.462;10.846;2022-10-31T03:40:58;101280;;;
74485;BMP280;62942;52.462;10.846;2022-10-31T03:42:11;101280;;;
74485;BMP280;62942;52.462;10.846;2022-10-31T03:43:08;101280;;;
74485;BMP280;62942;52.462;10.846;2022-10-31T03:44:17;101280;;;
74485;BMP280;62942;52.462;10.846;2022-10-31T03:45:19;101280;;;
74485;BMP280;62942;52.462;10.846;2022-10-31T03:46:27;101290;;;
74485;BMP280;62942;52.462;10.846;2022-10-31T03:47:27;101290;;;
74485;BMP280;62942;52.462;10.846;2022-10-31T03:48:37;101290;;;
74485;BMP280;62942;52.462;10.846;2022-10-31T03:49:37;101290;;;
74485;BMP280;62942;52.462;10.846;2022-10-31T03:50:49;101280;;;
74485;BMP280;62942;52.462;10.846;2022-10-31T03:51:49;101280;;;
74485;BMP280;62942;52.462;10.846;2022-10-31T03:52:48;101280;;;
74485;BMP280;62942;52.462;10.846;2022-10-31T03:53:59;101290;;;
74485;BMP280;62942;52.462;10.846;2022-10-31T03:55:07;101280;;;
74485;BMP280;62942;52.462;10.846;2022-10-31T03:56:09;101290;;;
74485;BMP280;62942;52.462;10.846;2022-10-31T03:57:18;101290;;;
74485;BMP280;62942;52.462;10.846;2022-10-31T03:58:28;101290;;;
74485;BMP280;62942;52.462;10.846;2022-10-31T03:59:39;101270;;;
74485;BMP280;62942;52.462;10.846;2022-10-31T04:00:47;101290;;;
74485;BMP280;62942;52.462;10.846;2022-10-31T04:01:57;101290;;;
74485;BMP280;62942;52.462;10.846;2022-10-31T04:03:09;101290;;;
74485;BMP280;62942;52.462;10.846;2022-10-31T04:04:17;101290;;;
74485;BMP280;62942;52.462;10.846;2022-10-31T04:05:27;101290;;;
74485;BMP280;62942;52.462;10.846;2022-10-31T04:06:27;101290;;;
74485;BMP280;62942;52.462;10.846;2022-10-31T04:07:38;101290;;;
74485;BMP280;62942;52.462;10.846;2022-10-31T04:08:38;101290;;;
74485;BMP280;62942;52.462;10.846;2022-10-31T04:09:47;101300;;;
74485;BMP280;62942;52.462;10.846;2022-10-31T04:10:57;101300;;;
74485;BMP280;62942;52.462;10.846;2022-10-31T04:11:57;101300;;;
74485;BMP280;62942;52.462;10.846;2022-10-31T04:13:08;101300;;;
74485;BMP280;62942;52.462;10.846;2022-10-31T04:14:07;101300;;;
74485;BMP280;62942;52.462;10.846;2022-10-31T04:15:07;101310;;;
74485;BMP280;62942;52.462;10.846;2022-10-31T04:16:17;101300;;;
74485;BMP280;62942;52.462;10.846;2022-10-31T04:17:27;101310;;;
74485;BMP280;62942;52.462;10.846;2022-10-31T04:18:27;101300;;;
74485;BMP280;62942;52.462;10.846;2022-10-31T04:19:27;101310;;;
74485;BMP280;62942;52.462;10.846;2022-10-31T04:20:38;101310;;;
74485;BMP280;62942;52.462;10.846;2022-10-31T04:21:47;101310;;;
74485;BMP280;62942;52.462;10.846;2022-10-31T04:22:57;101310;;;
74485;BMP280;62942;52.462;10.846;2022-10-31T04:23:57;101320;;;
74485;BMP280;62942;52.462;10.846;2022-10-31T04:25:07;101320;;;
74485;BMP280;62942;52.462;10.846;2022-10-31T04:26:07;101310;;;
74485;BMP280;62942;52.462;10.846;2022-10-31T04:27:07;101310;;;
74485;BMP280;62942;52.462;10.846;2022-10-31T04:28:17;101320;;;
74485;BMP280;62942;52.462;10.846;2022-10-31T04:29:17;101320;;;
74485;BMP280;62942;52.462;10.846;2022-10-31T04:30:27;101320;;;
74485;BMP280;62942;52.462;10.846;2022-10-31T04:31:37;101320;;;
74485;BMP280;62942;52.462;10.846;2022-10-31T04:32:37;101330;;;
74485;BMP280;62942;52.462;10.846;2022-10-31T04:33:47;101330;;;
74485;BMP280;62942;52.462;10.846;2022-10-31T04:34:57;101330;;;
74485;BMP280;62942;52.462;10.846;2022-10-31T04:36:07;101330;;;
74485;BMP280;62942;52.462;10.846;2022-10-31T04:37:07;101330;;;
74485;BMP280;62942;52.462;10.846;2022-10-31T04:38:17;101330;;;
74485;BMP280;62942;52.462;10.846;2022-10-31T04:39:17;101320;;;
74485;BMP280;62942;52.462;10.846;2022-10-31T04:40:27;101320;;;
74485;BMP280;62942;52.462;10.846;2022-10-31T04:41:37;101320;;;
74485;BMP280;62942;52.462;10.846;2022-10-31T04:42:47;101320;;;
74485;BMP280;62942;52.462;10.846;2022-10-31T04:43:57;101330;;;
74485;BMP280;62942;52.462;10.846;2022-10-31T04:45:07;101330;;;
74485;BMP280;62942;52.462;10.846;2022-10-31T04:46:07;101330;;;
74485;BMP280;62942;52.462;10.846;2022-10-31T04:47:17;101330;;;
74485;BMP280;62942;52.462;10.846;2022-10-31T04:48:17;101330;;;
74485;BMP280;62942;52.462;10.846;2022-10-31T04:49:27;101330;;;
74485;BMP280;62942;52.462;10.846;2022-10-31T04:50:37;101330;;;
74485;BMP280;62942;52.462;10.846;2022-10-31T04:51:47;101330;;;
74485;BMP280;62942;52.462;10.846;2022-10-31T04:52:57;101330;;;
74485;BMP280;62942;52.462;10.846;2022-10-31T04:53:57;101330;;;
74485;BMP280;62942;52.462;10.846;2022-10-31T04:55:08;101330;;;
74485;BMP280;62942;52.462;10.846;2022-10-31T04:56:17;101330;;;
74485;BMP280;62942;52.462;10.846;2022-10-31T04:57:17;101330;;;
74485;BMP280;62942;52.462;10.846;2022-10-31T04:58:27;101330;;;
74485;BMP280;62942;52.462;10.846;2022-10-31T04:59:37;101340;;;
74485;BMP280;62942;52.462;10.846;2022-10-31T05:00:47;101330;;;
74485;BMP280;62942;52.462;10.846;2022-10-31T05:01:47;101330;;;
74485;BMP280;62942;52.462;10.846;2022-10-31T05:02:57;101330;;;
74485;BMP280;62942;52.462;10.846;2022-10-31T05:03:57;101330;;;
74485;BMP280;62942;52.462;10.846;2022-10-31T05:05:07;101350;;;
74485;BMP280;62942;52.462;10.846;2022-10-31T05:06:07;101340;;;
74485;BMP280;62942;52.462;10.846;2022-10-31T05:07:17;101340;;;
74485;BMP280;62942;52.462;10.846;2022-10-31T05:08:17;101340;;;
74485;BMP280;62942;52.462;10.846;2022-10-31T05:09:27;101350;;;
74485;BMP280;62942;52.462;10.846;2022-10-31T05:10:37;101350;;;
74485;BMP280;62942;52.462;10.846;2022-10-31T05:11:37;101350;;;
74485;BMP280;62942;52.462;10.846;2022-10-31T05:12:48;101350;;;
74485;BMP280;62942;52.462;10.846;2022-10-31T05:13:57;101360;;;
74485;BMP280;62942;52.462;10.846;2022-10-31T05:15:07;101360;;;
74485;BMP280;62942;52.462;10.846;2022-10-31T05:16:17;101360;;;
74485;BMP280;62942;52.462;10.846;2022-10-31T05:17:17;101360;;;
74485;BMP280;62942;52.462;10.846;2022-10-31T05:18:27;101360;;;
74485;BMP280;62942;52.462;10.846;2022-10-31T05:19:27;101360;;;
74485;BMP280;62942;52.462;10.846;2022-10-31T05:20:37;101370;;;
74485;BMP280;62942;52.462;10.846;2022-10-31T05:21:47;101360;;;
74485;BMP280;62942;52.462;10.846;2022-10-31T05:22:57;101350;;;
74485;BMP280;62942;52.462;10.846;2022-10-31T05:24:07;101350;;;
74485;BMP280;62942;52.462;10.846;2022-10-31T05:25:18;101360;;;
74485;BMP280;62942;52.462;10.846;2022-10-31T05:26:27;101370;;;
74485;BMP280;62942;52.462;10.846;2022-10-31T05:27:27;101370;;;
74485;BMP280;62942;52.462;10.846;2022-10-31T05:28:37;101370;;;
74485;BMP280;62942;52.462;10.846;2022-10-31T05:29:37;101370;;;
74485;BMP280;62942;52.462;10.846;2022-10-31T05:30:47;101360;;;
74485;BMP280;62942;52.462;10.846;2022-10-31T05:31:47;101370;;;
74485;BMP280;62942;52.462;10.846;2022-10-31T05:32:57;101370;;;
74485;BMP280;62942;52.462;10.846;2022-10-31T05:33:57;101360;;;
74485;BMP280;62942;52.462;10.846;2022-10-31T05:35:07;101370;;;
74485;BMP280;62942;52.462;10.846;2022-10-31T05:36:17;101360;;;
74485;BMP280;62942;52.462;10.846;2022-10-31T05:37:27;101360;;;
74485;BMP280;62942;52.462;10.846;2022-10-31T05:38:37;101360;;;
74485;BMP280;62942;52.462;10.846;2022-10-31T05:39:47;101370;;;
74485;BMP280;62942;52.462;10.846;2022-10-31T05:40:47;101360;;;
74485;BMP280;62942;52.462;10.846;2022-10-31T05:41:57;101360;;;
74485;BMP280;62942;52.462;10.846;2022-10-31T05:43:07;101360;;;
74485;BMP280;62942;52.462;10.846;2022-10-31T05:44:17;101360;;;
74485;BMP280;62942;52.462;10.846;2022-10-31T05:45:17;101360;;;
74485;BMP280;62942;52.462;10.846;2022-10-31T05:46:27;101360;;;
74485;BMP280;62942;52.462;10.846;2022-10-31T05:47:37;101360;;;
74485;BMP280;62942;52.462;10.846;2022-10-31T05:48:37;101360;;;
74485;BMP280;62942;52.462;10.846;2022-10-31T05:49:47;101360;;;
74485;BMP280;62942;52.462;10.846;2022-10-31T05:50:47;101360;;;
74485;BMP280;62942;52.462;10.846;2022-10-31T05:51:57;101360;;;
74485;BMP280;62942;52.462;10.846;2022-10-31T05:52:58;101360;;;
74485;BMP280;62942;52.462;10.846;2022-10-31T05:54:07;101360;;;
74485;BMP280;62942;52.462;10.846;2022-10-31T05:55:07;101360;;;
74485;BMP280;62942;52.462;10.846;2022-10-31T05:56:17;101360;;;
74485;BMP280;62942;52.462;10.846;2022-10-31T05:57:27;101360;;;
74485;BMP280;62942;52.462;10.846;2022-10-31T05:58:27;101350;;;
74485;BMP280;62942;52.462;10.846;2022-10-31T05:59:37;101350;;;
74485;BMP280;62942;52.462;10.846;2022-10-31T06:00:37;101350;;;
74485;BMP280;62942;52.462;10.846;2022-10-31T06:01:47;101360;;;
74485;BMP280;62942;52.462;10.846;2022-10-31T06:02:57;101360;;;
74485;BMP280;62942;52.462;10.846;2022-10-31T06:04:07;101360;;;
74485;BMP280;62942;52.462;10.846;2022-10-31T06:05:17;101350;;;
74485;BMP280;62942;52.462;10.846;2022-10-31T06:06:17;101360;;;
74485;BMP280;62942;52.462;10.846;2022-10-31T06:07:31;101360;;;
74485;BMP280;62942;52.462;10.846;2022-10-31T06:08:37;101360;;;
74485;BMP280;62942;52.462;10.846;2022-10-31T06:09:37;101360;;;
74485;BMP280;62942;52.462;10.846;2022-10-31T06:10:47;101360;;;
74485;BMP280;62942;52.462;10.846;2022-10-31T06:11:57;101360;;;
74485;BMP280;62942;52.462;10.846;2022-10-31T06:12:57;101370;;;
74485;BMP280;62942;52.462;10.846;2022-10-31T06:14:07;101360;;;
74485;BMP280;62942;52.462;10.846;2022-10-31T06:15:07;101370;;;
74485;BMP280;62942;52.462;10.846;2022-10-31T06:16:07;101360;;;
74485;BMP280;62942;52.462;10.846;2022-10-31T06:17:17;101370;;;
74485;BMP280;62942;52.462;10.846;2022-10-31T06:18:27;101360;;;
74485;BMP280;62942;52.462;10.846;2022-10-31T06:19:27;101370;;;
74485;BMP280;62942;52.462;10.846;2022-10-31T06:20:37;101370;;;
74485;BMP280;62942;52.462;10.846;2022-10-31T06:21:47;101370;;;
74485;BMP280;62942;52.462;10.846;2022-10-31T06:22:57;101370;;;
74485;BMP280;62942;52.462;10.846;2022-10-31T06:24:07;101370;;;
74485;BMP280;62942;52.462;10.846;2022-10-31T06:25:17;101370;;;
74485;BMP280;62942;52.462;10.846;2022-10-31T06:26:27;101370;;;
74485;BMP280;62942;52.462;10.846;2022-10-31T06:27:27;101370;;;
74485;BMP280;62942;52.462;10.846;2022-10-31T06:28:37;101370;;;
74485;BMP280;62942;52.462;10.846;2022-10-31T06:29:47;101370;;;
74485;BMP280;62942;52.462;10.846;2022-10-31T06:30:57;101370;;;
74485;BMP280;62942;52.462;10.846;2022-10-31T06:32:09;101370;;;
74485;BMP280;62942;52.462;10.846;2022-10-31T06:33:17;101370;;;
74485;BMP280;62942;52.462;10.846;2022-10-31T06:34:17;101380;;;
74485;BMP280;62942;52.462;10.846;2022-10-31T06:35:17;101380;;;
74485;BMP280;62942;52.462;10.846;2022-10-31T06:36:27;101380;;;
74485;BMP280;62942;52.462;10.846;2022-10-31T06:37:27;101370;;;
74485;BMP280;62942;52.462;10.846;2022-10-31T06:38:37;101370;;;
74485;BMP280;62942;52.462;10.846;2022-10-31T06:39:47;101380;;;
74485;BMP280;62942;52.462;10.846;2022-10-31T06:40:57;101380;;;
74485;BMP280;62942;52.462;10.846;2022-10-31T06:42:07;101380;;;
74485;BMP280;62942;52.462;10.846;2022-10-31T06:43:17;101380;;;
74485;BMP280;62942;52.462;10.846;2022-10-31T06:44:17;101390;;;
74485;BMP280;62942;52.462;10.846;2022-10-31T06:45:27;101390;;;
74485;BMP280;62942;52.462;10.846;2022-10-31T06:46:37;101390;;;
74485;BMP280;62942;52.462;10.846;2022-10-31T06:47:49;101390;;;
74485;BMP280;62942;52.462;10.846;2022-10-31T06:48:57;101400;;;
74485;BMP280;62942;52.462;10.846;2022-10-31T06:50:07;101400;;;
74485;BMP280;62942;52.462;10.846;2022-10-31T06:51:17;101400;;;
74485;BMP280;62942;52.462;10.846;2022-10-31T06:52:27;101390;;;
74485;BMP280;62942;52.462;10.846;2022-10-31T06:53:37;101400;;;
74485;BMP280;62942;52.462;10.846;2022-10-31T06:54:47;101400;;;
74485;BMP280;62942;52.462;10.846;2022-10-31T06:55:57;101400;;;
74485;BMP280;62942;52.462;10.846;2022-10-31T06:57:07;101400;;;
74485;BMP280;62942;52.462;10.846;2022-10-31T06:58:08;101400;;;
74485;BMP280;62942;52.462;10.846;2022-10-31T06:59:17;101410;;;
74485;BMP280;62942;52.462;10.846;2022-10-31T07:00:17;101410;;;
74485;BMP280;62942;52.462;10.846;2022-10-31T07:01:27;101410;;;
74485;BMP280;62942;52.462;10.846;2022-10-31T07:02:27;101400;;;